Bay Point, New York
Current Conditions -  °F | °C
As of 7:53 PM on Tuesday 27 Jan 2015 (Local Time) from KFOK Reporting Station
Overcast Overcast  
Wind Chill:   Ceiling: 6500
Heat Index: 20°   Visibility: 10mi
Dew Point: 11°   Wind: 17mph
Humidity: 68%   Direction: 340°NNW
Pressure: 29.7"   Gusts: 30mph
Location:  40.9692°N, 72.306°W
Report Text: KFOK 280053Z 34015G26KT 10SM SCT023 BKN065 OVC085 M07/M12 A2970 RMK AO2 PK WND 34028/0010 SLP058 T10671117 $
Loading
Personal Weather Stations






























Interactive Weather Map New forecast layout! Learn more

10-Day Weather Forecast

Advertisements
Track Severe Weather on mobile